sensor_id;sensor_type;location;lat;lon;timestamp;temperature;humidity
10702;DHT22;5402;50.004;8.246;2023-02-26T00:00:32;0.80;99.90
10702;DHT22;5402;50.004;8.246;2023-02-26T00:02:59;0.70;99.90
10702;DHT22;5402;50.004;8.246;2023-02-26T00:05:26;0.70;99.90
10702;DHT22;5402;50.004;8.246;2023-02-26T00:07:54;0.70;99.90
10702;DHT22;5402;50.004;8.246;2023-02-26T00:10:21;0.70;99.90
10702;DHT22;5402;50.004;8.246;2023-02-26T00:12:48;0.70;99.90
10702;DHT22;5402;50.004;8.246;2023-02-26T00:15:16;0.70;99.90
10702;DHT22;5402;50.004;8.246;2023-02-26T00:17:51;0.70;99.90
10702;DHT22;5402;50.004;8.246;2023-02-26T00:20:19;0.70;99.90
10702;DHT22;5402;50.004;8.246;2023-02-26T00:22:47;0.70;99.90
10702;DHT22;5402;50.004;8.246;2023-02-26T00:25:16;0.70;99.90
10702;DHT22;5402;50.004;8.246;2023-02-26T00:27:43;0.70;99.90
10702;DHT22;5402;50.004;8.246;2023-02-26T00:30:11;0.70;99.90
10702;DHT22;5402;50.004;8.246;2023-02-26T00:32:39;0.70;99.90
10702;DHT22;5402;50.004;8.246;2023-02-26T00:35:07;0.70;99.90
10702;DHT22;5402;50.004;8.246;2023-02-26T00:40:35;0.70;99.90
10702;DHT22;5402;50.004;8.246;2023-02-26T00:43:05;0.80;99.90
10702;DHT22;5402;50.004;8.246;2023-02-26T00:45:32;0.80;99.90
10702;DHT22;5402;50.004;8.246;2023-02-26T00:48:12;0.80;99.90
10702;DHT22;5402;50.004;8.246;2023-02-26T00:50:44;0.90;99.90
10702;DHT22;5402;50.004;8.246;2023-02-26T00:53:19;0.90;99.90
10702;DHT22;5402;50.004;8.246;2023-02-26T00:55:48;0.90;99.90
10702;DHT22;5402;50.004;8.246;2023-02-26T00:58:15;1.00;99.90
10702;DHT22;5402;50.004;8.246;2023-02-26T01:00:42;1.00;99.90
10702;DHT22;5402;50.004;8.246;2023-02-26T01:03:09;1.10;99.90
10702;DHT22;5402;50.004;8.246;2023-02-26T01:05:37;1.10;99.90
10702;DHT22;5402;50.004;8.246;2023-02-26T01:08:08;1.10;99.90
10702;DHT22;5402;50.004;8.246;2023-02-26T01:10:38;1.10;99.90
10702;DHT22;5402;50.004;8.246;2023-02-26T01:13:07;1.10;99.90
10702;DHT22;5402;50.004;8.246;2023-02-26T01:15:35;1.10;99.90
10702;DHT22;5402;50.004;8.246;2023-02-26T01:18:05;1.00;99.90
10702;DHT22;5402;50.004;8.246;2023-02-26T01:20:39;1.10;99.90
10702;DHT22;5402;50.004;8.246;2023-02-26T01:23:12;1.10;99.90
10702;DHT22;5402;50.004;8.246;2023-02-26T01:25:43;1.10;99.90
10702;DHT22;5402;50.004;8.246;2023-02-26T01:28:14;1.10;99.90
10702;DHT22;5402;50.004;8.246;2023-02-26T01:30:42;1.10;99.90
10702;DHT22;5402;50.004;8.246;2023-02-26T01:33:15;1.10;99.90
10702;DHT22;5402;50.004;8.246;2023-02-26T01:35:47;1.10;99.90
10702;DHT22;5402;50.004;8.246;2023-02-26T01:38:21;1.10;99.90
10702;DHT22;5402;50.004;8.246;2023-02-26T01:44:02;1.10;99.90
10702;DHT22;5402;50.004;8.246;2023-02-26T01:46:35;1.10;99.90
10702;DHT22;5402;50.004;8.246;2023-02-26T01:49:07;1.10;99.90
10702;DHT22;5402;50.004;8.246;2023-02-26T01:51:48;1.10;99.90
10702;DHT22;5402;50.004;8.246;2023-02-26T01:54:18;1.10;99.90
10702;DHT22;5402;50.004;8.246;2023-02-26T01:56:48;1.10;99.90
10702;DHT22;5402;50.004;8.246;2023-02-26T01:59:17;1.10;99.90
10702;DHT22;5402;50.004;8.246;2023-02-26T02:01:49;1.00;99.90
10702;DHT22;5402;50.004;8.246;2023-02-26T02:04:17;1.10;99.90
10702;DHT22;5402;50.004;8.246;2023-02-26T02:06:45;1.10;99.90
10702;DHT22;5402;50.004;8.246;2023-02-26T02:09:12;1.10;99.90
10702;DHT22;5402;50.004;8.246;2023-02-26T02:11:51;1.00;99.90
10702;DHT22;5402;50.004;8.246;2023-02-26T02:14:30;1.00;99.90
10702;DHT22;5402;50.004;8.246;2023-02-26T02:17:07;1.00;99.90
10702;DHT22;5402;50.004;8.246;2023-02-26T02:23:01;1.00;99.90
10702;DHT22;5402;50.004;8.246;2023-02-26T02:25:49;1.00;99.90
10702;DHT22;5402;50.004;8.246;2023-02-26T02:28:30;0.90;99.90
10702;DHT22;5402;50.004;8.246;2023-02-26T02:31:06;0.90;99.90
10702;DHT22;5402;50.004;8.246;2023-02-26T02:33:41;0.90;99.90
10702;DHT22;5402;50.004;8.246;2023-02-26T02:36:12;1.00;99.90
10702;DHT22;5402;50.004;8.246;2023-02-26T02:38:44;1.10;99.90
10702;DHT22;5402;50.004;8.246;2023-02-26T02:41:16;1.20;99.90
10702;DHT22;5402;50.004;8.246;2023-02-26T02:43:46;1.20;99.90
10702;DHT22;5402;50.004;8.246;2023-02-26T02:46:17;1.30;99.90
10702;DHT22;5402;50.004;8.246;2023-02-26T02:48:48;1.40;99.90
10702;DHT22;5402;50.004;8.246;2023-02-26T02:51:22;1.30;99.90
10702;DHT22;5402;50.004;8.246;2023-02-26T02:53:53;1.20;99.90
10702;DHT22;5402;50.004;8.246;2023-02-26T02:56:24;1.30;99.90
10702;DHT22;5402;50.004;8.246;2023-02-26T02:58:56;1.30;99.90
10702;DHT22;5402;50.004;8.246;2023-02-26T03:01:25;1.20;99.90
10702;DHT22;5402;50.004;8.246;2023-02-26T03:03:57;1.20;99.90
10702;DHT22;5402;50.004;8.246;2023-02-26T03:06:25;1.10;99.90
10702;DHT22;5402;50.004;8.246;2023-02-26T03:08:52;1.10;99.90
10702;DHT22;5402;50.004;8.246;2023-02-26T03:11:19;1.00;99.90
10702;DHT22;5402;50.004;8.246;2023-02-26T03:13:47;1.10;99.90
10702;DHT22;5402;50.004;8.246;2023-02-26T03:16:28;1.00;99.90
10702;DHT22;5402;50.004;8.246;2023-02-26T03:19:03;1.00;99.90
10702;DHT22;5402;50.004;8.246;2023-02-26T03:21:38;1.00;99.90
10702;DHT22;5402;50.004;8.246;2023-02-26T03:24:11;1.00;99.90
10702;DHT22;5402;50.004;8.246;2023-02-26T03:26:42;0.90;99.90
10702;DHT22;5402;50.004;8.246;2023-02-26T03:29:15;0.90;99.90
10702;DHT22;5402;50.004;8.246;2023-02-26T03:31:52;0.80;99.90
10702;DHT22;5402;50.004;8.246;2023-02-26T03:34:24;0.80;99.90
10702;DHT22;5402;50.004;8.246;2023-02-26T03:36:56;0.80;99.90
10702;DHT22;5402;50.004;8.246;2023-02-26T03:39:27;0.70;99.90
10702;DHT22;5402;50.004;8.246;2023-02-26T03:41:58;0.70;99.90
10702;DHT22;5402;50.004;8.246;2023-02-26T03:44:30;0.70;99.90
10702;DHT22;5402;50.004;8.246;2023-02-26T03:47:03;0.80;99.90
10702;DHT22;5402;50.004;8.246;2023-02-26T03:49:33;0.80;99.90
10702;DHT22;5402;50.004;8.246;2023-02-26T03:52:02;0.80;99.90
10702;DHT22;5402;50.004;8.246;2023-02-26T03:54:33;0.80;99.90
10702;DHT22;5402;50.004;8.246;2023-02-26T03:57:01;0.70;99.90
10702;DHT22;5402;50.004;8.246;2023-02-26T03:59:28;0.60;99.90
10702;DHT22;5402;50.004;8.246;2023-02-26T04:02:03;0.60;99.90
10702;DHT22;5402;50.004;8.246;2023-02-26T04:04:33;0.60;99.90
10702;DHT22;5402;50.004;8.246;2023-02-26T04:07:07;0.60;99.90
10702;DHT22;5402;50.004;8.246;2023-02-26T04:09:34;0.60;99.90
10702;DHT22;5402;50.004;8.246;2023-02-26T04:12:01;0.70;99.90
10702;DHT22;5402;50.004;8.246;2023-02-26T04:14:29;0.60;99.90
10702;DHT22;5402;50.004;8.246;2023-02-26T04:16:55;0.50;99.90
10702;DHT22;5402;50.004;8.246;2023-02-26T04:19:23;0.50;99.90
10702;DHT22;5402;50.004;8.246;2023-02-26T04:21:50;0.40;99.90
10702;DHT22;5402;50.004;8.246;2023-02-26T04:24:17;0.40;99.90
10702;DHT22;5402;50.004;8.246;2023-02-26T04:26:44;0.40;99.90
10702;DHT22;5402;50.004;8.246;2023-02-26T04:29:10;0.40;99.90
10702;DHT22;5402;50.004;8.246;2023-02-26T04:31:37;0.30;99.90
10702;DHT22;5402;50.004;8.246;2023-02-26T04:34:04;0.20;99.90
10702;DHT22;5402;50.004;8.246;2023-02-26T04:36:32;0.30;99.90
10702;DHT22;5402;50.004;8.246;2023-02-26T04:38:59;0.20;99.90
10702;DHT22;5402;50.004;8.246;2023-02-26T04:41:26;0.30;99.90
10702;DHT22;5402;50.004;8.246;2023-02-26T04:43:52;0.20;99.90
10702;DHT22;5402;50.004;8.246;2023-02-26T04:46:19;0.10;99.90
10702;DHT22;5402;50.004;8.246;2023-02-26T04:48:46;0.00;99.90
10702;DHT22;5402;50.004;8.246;2023-02-26T04:51:13;0.00;99.90
10702;DHT22;5402;50.004;8.246;2023-02-26T04:53:41;0.00;99.90
10702;DHT22;5402;50.004;8.246;2023-02-26T04:56:08;-0.10;99.90
10702;DHT22;5402;50.004;8.246;2023-02-26T04:58:35;-0.20;99.90
10702;DHT22;5402;50.004;8.246;2023-02-26T05:01:02;-0.20;99.90
10702;DHT22;5402;50.004;8.246;2023-02-26T05:03:29;-0.20;99.90
10702;DHT22;5402;50.004;8.246;2023-02-26T05:05:55;-0.30;99.90
10702;DHT22;5402;50.004;8.246;2023-02-26T05:08:22;-0.20;99.90
10702;DHT22;5402;50.004;8.246;2023-02-26T05:10:51;-0.20;99.90
10702;DHT22;5402;50.004;8.246;2023-02-26T05:13:18;-0.20;99.90
10702;DHT22;5402;50.004;8.246;2023-02-26T05:15:45;-0.10;99.90
10702;DHT22;5402;50.004;8.246;2023-02-26T05:18:12;0.20;99.90
10702;DHT22;5402;50.004;8.246;2023-02-26T05:20:39;0.30;99.90
10702;DHT22;5402;50.004;8.246;2023-02-26T05:23:06;0.30;99.90
10702;DHT22;5402;50.004;8.246;2023-02-26T05:25:32;0.20;99.90
10702;DHT22;5402;50.004;8.246;2023-02-26T05:28:00;0.20;99.90
10702;DHT22;5402;50.004;8.246;2023-02-26T05:30:27;0.20;99.90
10702;DHT22;5402;50.004;8.246;2023-02-26T05:32:54;0.20;99.90
10702;DHT22;5402;50.004;8.246;2023-02-26T05:35:20;0.20;99.90
10702;DHT22;5402;50.004;8.246;2023-02-26T05:37:47;0.20;99.90
10702;DHT22;5402;50.004;8.246;2023-02-26T05:40:14;0.30;99.90
10702;DHT22;5402;50.004;8.246;2023-02-26T05:42:41;0.20;99.90
10702;DHT22;5402;50.004;8.246;2023-02-26T05:45:09;0.20;99.90
10702;DHT22;5402;50.004;8.246;2023-02-26T05:47:37;0.10;99.90
10702;DHT22;5402;50.004;8.246;2023-02-26T05:50:05;0.10;99.90
10702;DHT22;5402;50.004;8.246;2023-02-26T05:52:32;0.10;99.90
10702;DHT22;5402;50.004;8.246;2023-02-26T05:54:58;0.00;99.90
10702;DHT22;5402;50.004;8.246;2023-02-26T05:57:25;0.10;99.90
10702;DHT22;5402;50.004;8.246;2023-02-26T05:59:52;0.10;99.90
10702;DHT22;5402;50.004;8.246;2023-02-26T06:02:20;0.10;99.90
10702;DHT22;5402;50.004;8.246;2023-02-26T06:04:47;0.10;99.90
10702;DHT22;5402;50.004;8.246;2023-02-26T06:07:14;0.10;99.90
10702;DHT22;5402;50.004;8.246;2023-02-26T06:09:41;0.20;99.90
10702;DHT22;5402;50.004;8.246;2023-02-26T06:12:07;0.10;99.90
10702;DHT22;5402;50.004;8.246;2023-02-26T06:14:35;0.20;99.90
10702;DHT22;5402;50.004;8.246;2023-02-26T06:17:02;0.20;99.90
10702;DHT22;5402;50.004;8.246;2023-02-26T06:19:30;0.20;99.90
10702;DHT22;5402;50.004;8.246;2023-02-26T06:21:57;0.30;99.90
10702;DHT22;5402;50.004;8.246;2023-02-26T06:24:24;0.10;99.90
10702;DHT22;5402;50.004;8.246;2023-02-26T06:26:51;0.10;99.90
10702;DHT22;5402;50.004;8.246;2023-02-26T06:29:17;0.10;99.90
10702;DHT22;5402;50.004;8.246;2023-02-26T06:31:45;0.10;99.90
10702;DHT22;5402;50.004;8.246;2023-02-26T06:34:12;0.10;99.90
10702;DHT22;5402;50.004;8.246;2023-02-26T06:36:40;0.10;99.90
10702;DHT22;5402;50.004;8.246;2023-02-26T06:39:07;0.10;99.90
10702;DHT22;5402;50.004;8.246;2023-02-26T06:41:34;0.20;99.90
10702;DHT22;5402;50.004;8.246;2023-02-26T06:44:01;0.30;99.90
10702;DHT22;5402;50.004;8.246;2023-02-26T06:46:28;0.30;99.90
10702;DHT22;5402;50.004;8.246;2023-02-26T06:48:55;0.40;99.90
10702;DHT22;5402;50.004;8.246;2023-02-26T06:51:21;0.40;99.90
10702;DHT22;5402;50.004;8.246;2023-02-26T06:53:49;0.30;99.90
10702;DHT22;5402;50.004;8.246;2023-02-26T06:56:16;0.40;99.90
10702;DHT22;5402;50.004;8.246;2023-02-26T06:58:43;0.40;99.90
10702;DHT22;5402;50.004;8.246;2023-02-26T07:01:09;0.40;99.90
10702;DHT22;5402;50.004;8.246;2023-02-26T07:03:36;0.40;99.90
10702;DHT22;5402;50.004;8.246;2023-02-26T07:06:04;0.50;99.90
10702;DHT22;5402;50.004;8.246;2023-02-26T07:08:32;0.50;99.90
10702;DHT22;5402;50.004;8.246;2023-02-26T07:11:00;0.50;99.90
10702;DHT22;5402;50.004;8.246;2023-02-26T07:13:27;0.50;99.90
10702;DHT22;5402;50.004;8.246;2023-02-26T07:15:54;0.50;99.90
10702;DHT22;5402;50.004;8.246;2023-02-26T07:18:20;0.50;99.90
10702;DHT22;5402;50.004;8.246;2023-02-26T07:20:48;0.60;99.90
10702;DHT22;5402;50.004;8.246;2023-02-26T07:23:15;0.60;99.90
10702;DHT22;5402;50.004;8.246;2023-02-26T07:25:42;0.50;99.90
10702;DHT22;5402;50.004;8.246;2023-02-26T07:28:10;0.50;99.90
10702;DHT22;5402;50.004;8.246;2023-02-26T07:30:36;0.60;99.90
10702;DHT22;5402;50.004;8.246;2023-02-26T07:33:06;0.60;99.90
10702;DHT22;5402;50.004;8.246;2023-02-26T07:35:33;0.70;99.90
10702;DHT22;5402;50.004;8.246;2023-02-26T07:38:00;0.60;99.90
10702;DHT22;5402;50.004;8.246;2023-02-26T07:40:26;0.60;99.90
10702;DHT22;5402;50.004;8.246;2023-02-26T07:42:53;0.60;99.90
10702;DHT22;5402;50.004;8.246;2023-02-26T07:45:21;0.60;99.90
10702;DHT22;5402;50.004;8.246;2023-02-26T07:47:48;0.70;99.90
10702;DHT22;5402;50.004;8.246;2023-02-26T07:50:16;0.70;99.90
10702;DHT22;5402;50.004;8.246;2023-02-26T07:52:43;0.70;99.90
10702;DHT22;5402;50.004;8.246;2023-02-26T07:55:11;0.80;99.90
10702;DHT22;5402;50.004;8.246;2023-02-26T07:57:37;0.90;99.90
10702;DHT22;5402;50.004;8.246;2023-02-26T08:00:05;1.10;99.90
10702;DHT22;5402;50.004;8.246;2023-02-26T08:02:34;1.10;99.90
10702;DHT22;5402;50.004;8.246;2023-02-26T08:05:01;1.00;99.90
10702;DHT22;5402;50.004;8.246;2023-02-26T08:07:27;1.10;99.90
10702;DHT22;5402;50.004;8.246;2023-02-26T08:09:54;1.20;99.90
10702;DHT22;5402;50.004;8.246;2023-02-26T08:12:21;1.00;99.90
10702;DHT22;5402;50.004;8.246;2023-02-26T08:14:47;1.00;99.90
10702;DHT22;5402;50.004;8.246;2023-02-26T08:17:14;1.20;99.90
10702;DHT22;5402;50.004;8.246;2023-02-26T08:19:42;1.20;99.90
10702;DHT22;5402;50.004;8.246;2023-02-26T08:22:09;1.20;99.90
10702;DHT22;5402;50.004;8.246;2023-02-26T08:24:35;1.30;99.90
10702;DHT22;5402;50.004;8.246;2023-02-26T08:27:03;1.30;99.90
10702;DHT22;5402;50.004;8.246;2023-02-26T08:29:30;1.30;99.90
10702;DHT22;5402;50.004;8.246;2023-02-26T08:31:57;1.30;99.90
10702;DHT22;5402;50.004;8.246;2023-02-26T08:34:23;1.30;99.90
10702;DHT22;5402;50.004;8.246;2023-02-26T08:36:51;1.40;99.90
10702;DHT22;5402;50.004;8.246;2023-02-26T08:39:18;1.50;99.90
10702;DHT22;5402;50.004;8.246;2023-02-26T08:41:45;1.50;99.90
10702;DHT22;5402;50.004;8.246;2023-02-26T08:44:11;1.40;99.90
10702;DHT22;5402;50.004;8.246;2023-02-26T08:46:38;1.60;99.90
10702;DHT22;5402;50.004;8.246;2023-02-26T08:49:05;1.60;99.90
10702;DHT22;5402;50.004;8.246;2023-02-26T08:51:32;1.80;99.90
10702;DHT22;5402;50.004;8.246;2023-02-26T08:54:00;2.00;99.90
10702;DHT22;5402;50.004;8.246;2023-02-26T08:56:26;2.10;99.90
10702;DHT22;5402;50.004;8.246;2023-02-26T08:58:53;2.00;99.90
10702;DHT22;5402;50.004;8.246;2023-02-26T09:01:20;1.80;99.90
10702;DHT22;5402;50.004;8.246;2023-02-26T09:03:46;1.80;99.90
10702;DHT22;5402;50.004;8.246;2023-02-26T09:06:13;1.90;99.90
10702;DHT22;5402;50.004;8.246;2023-02-26T09:08:40;2.00;99.90
10702;DHT22;5402;50.004;8.246;2023-02-26T09:11:08;2.00;99.90
10702;DHT22;5402;50.004;8.246;2023-02-26T09:13:35;2.00;99.90
10702;DHT22;5402;50.004;8.246;2023-02-26T09:16:02;1.90;99.90
10702;DHT22;5402;50.004;8.246;2023-02-26T09:18:29;1.90;99.90
10702;DHT22;5402;50.004;8.246;2023-02-26T09:20:56;1.90;99.90
10702;DHT22;5402;50.004;8.246;2023-02-26T09:23:22;1.80;99.90
10702;DHT22;5402;50.004;8.246;2023-02-26T09:25:51;1.90;99.90
10702;DHT22;5402;50.004;8.246;2023-02-26T09:28:20;1.80;99.90
10702;DHT22;5402;50.004;8.246;2023-02-26T09:30:50;1.80;99.90
10702;DHT22;5402;50.004;8.246;2023-02-26T09:33:17;1.80;99.90
10702;DHT22;5402;50.004;8.246;2023-02-26T09:35:47;2.00;99.90
10702;DHT22;5402;50.004;8.246;2023-02-26T09:38:14;2.10;99.90
10702;DHT22;5402;50.004;8.246;2023-02-26T09:40:44;2.20;99.90
10702;DHT22;5402;50.004;8.246;2023-02-26T09:43:29;2.20;99.90
10702;DHT22;5402;50.004;8.246;2023-02-26T09:46:01;2.30;99.90
10702;DHT22;5402;50.004;8.246;2023-02-26T09:48:30;2.50;99.90
10702;DHT22;5402;50.004;8.246;2023-02-26T09:50:58;2.40;99.90
10702;DHT22;5402;50.004;8.246;2023-02-26T09:53:27;2.50;99.90
10702;DHT22;5402;50.004;8.246;2023-02-26T09:56:03;2.60;99.90
10702;DHT22;5402;50.004;8.246;2023-02-26T09:58:33;2.90;99.90
10702;DHT22;5402;50.004;8.246;2023-02-26T10:01:05;3.10;99.90
10702;DHT22;5402;50.004;8.246;2023-02-26T10:03:50;3.60;99.90
10702;DHT22;5402;50.004;8.246;2023-02-26T10:06:22;3.60;99.90
10702;DHT22;5402;50.004;8.246;2023-02-26T10:09:02;3.70;99.90
10702;DHT22;5402;50.004;8.246;2023-02-26T10:11:38;3.80;99.90
10702;DHT22;5402;50.004;8.246;2023-02-26T10:14:13;3.90;99.90
10702;DHT22;5402;50.004;8.246;2023-02-26T10:16:45;3.60;99.90
10702;DHT22;5402;50.004;8.246;2023-02-26T10:19:16;3.50;99.90
10702;DHT22;5402;50.004;8.246;2023-02-26T10:21:46;3.60;99.90
10702;DHT22;5402;50.004;8.246;2023-02-26T10:24:18;3.80;99.90
10702;DHT22;5402;50.004;8.246;2023-02-26T10:26:50;3.90;99.90
10702;DHT22;5402;50.004;8.246;2023-02-26T10:29:26;3.80;99.90
10702;DHT22;5402;50.004;8.246;2023-02-26T10:32:09;3.70;99.90
10702;DHT22;5402;50.004;8.246;2023-02-26T10:34:45;3.70;99.90
10702;DHT22;5402;50.004;8.246;2023-02-26T10:37:16;3.60;99.90
10702;DHT22;5402;50.004;8.246;2023-02-26T10:39:49;3.60;99.90
10702;DHT22;5402;50.004;8.246;2023-02-26T10:42:20;3.90;99.90
10702;DHT22;5402;50.004;8.246;2023-02-26T10:44:56;3.90;99.90
10702;DHT22;5402;50.004;8.246;2023-02-26T10:47:32;3.90;99.90
10702;DHT22;5402;50.004;8.246;2023-02-26T10:50:04;4.10;99.90
10702;DHT22;5402;50.004;8.246;2023-02-26T10:52:32;4.20;99.90
10702;DHT22;5402;50.004;8.246;2023-02-26T10:55:06;4.00;99.90
10702;DHT22;5402;50.004;8.246;2023-02-26T10:57:36;4.00;99.90
10702;DHT22;5402;50.004;8.246;2023-02-26T11:00:09;3.90;99.90
10702;DHT22;5402;50.004;8.246;2023-02-26T11:02:41;4.00;99.90
10702;DHT22;5402;50.004;8.246;2023-02-26T11:05:15;3.90;99.90
10702;DHT22;5402;50.004;8.246;2023-02-26T11:07:42;3.90;99.90
10702;DHT22;5402;50.004;8.246;2023-02-26T11:10:17;3.70;99.90
10702;DHT22;5402;50.004;8.246;2023-02-26T11:12:44;3.90;99.90
10702;DHT22;5402;50.004;8.246;2023-02-26T11:15:14;3.90;99.90
10702;DHT22;5402;50.004;8.246;2023-02-26T11:17:44;4.00;99.90
10702;DHT22;5402;50.004;8.246;2023-02-26T11:20:24;4.00;99.90
10702;DHT22;5402;50.004;8.246;2023-02-26T11:22:53;3.90;99.90
10702;DHT22;5402;50.004;8.246;2023-02-26T11:25:23;4.10;99.90
10702;DHT22;5402;50.004;8.246;2023-02-26T11:27:54;4.10;99.90
10702;DHT22;5402;50.004;8.246;2023-02-26T11:30:29;4.30;99.90
10702;DHT22;5402;50.004;8.246;2023-02-26T11:33:15;4.30;99.90
10702;DHT22;5402;50.004;8.246;2023-02-26T11:35:42;4.20;99.90
10702;DHT22;5402;50.004;8.246;2023-02-26T11:38:15;4.30;99.90
10702;DHT22;5402;50.004;8.246;2023-02-26T11:40:46;4.40;99.90
10702;DHT22;5402;50.004;8.246;2023-02-26T11:43:16;4.50;99.90
10702;DHT22;5402;50.004;8.246;2023-02-26T11:45:47;4.50;99.90
10702;DHT22;5402;50.004;8.246;2023-02-26T11:48:21;4.10;99.90
10702;DHT22;5402;50.004;8.246;2023-02-26T11:50:52;3.90;99.90
10702;DHT22;5402;50.004;8.246;2023-02-26T11:53:24;3.90;99.90
10702;DHT22;5402;50.004;8.246;2023-02-26T11:55:59;3.90;99.90
10702;DHT22;5402;50.004;8.246;2023-02-26T11:58:29;3.70;99.90
10702;DHT22;5402;50.004;8.246;2023-02-26T12:01:00;3.70;99.90
10702;DHT22;5402;50.004;8.246;2023-02-26T12:03:30;3.80;99.90
10702;DHT22;5402;50.004;8.246;2023-02-26T12:05:58;3.90;99.90
10702;DHT22;5402;50.004;8.246;2023-02-26T12:08:30;3.90;99.90
10702;DHT22;5402;50.004;8.246;2023-02-26T12:11:24;4.00;99.90
10702;DHT22;5402;50.004;8.246;2023-02-26T12:14:03;4.10;99.90
10702;DHT22;5402;50.004;8.246;2023-02-26T12:16:41;4.20;99.90
10702;DHT22;5402;50.004;8.246;2023-02-26T12:19:17;4.20;99.90
10702;DHT22;5402;50.004;8.246;2023-02-26T12:22:02;4.20;99.90
10702;DHT22;5402;50.004;8.246;2023-02-26T12:24:54;4.10;99.90
10702;DHT22;5402;50.004;8.246;2023-02-26T12:27:30;4.30;99.90
10702;DHT22;5402;50.004;8.246;2023-02-26T12:30:13;4.40;99.90
10702;DHT22;5402;50.004;8.246;2023-02-26T12:33:00;4.10;99.90
10702;DHT22;5402;50.004;8.246;2023-02-26T12:35:50;4.10;99.90
10702;DHT22;5402;50.004;8.246;2023-02-26T12:38:28;4.20;99.90
10702;DHT22;5402;50.004;8.246;2023-02-26T12:44:02;3.90;99.90
10702;DHT22;5402;50.004;8.246;2023-02-26T12:46:49;3.90;99.90
10702;DHT22;5402;50.004;8.246;2023-02-26T12:49:44;3.90;99.90
10702;DHT22;5402;50.004;8.246;2023-02-26T12:52:37;3.80;99.90
10702;DHT22;5402;50.004;8.246;2023-02-26T12:55:21;4.00;99.90
10702;DHT22;5402;50.004;8.246;2023-02-26T12:58:01;4.20;99.90
10702;DHT22;5402;50.004;8.246;2023-02-26T13:00:45;4.20;99.90
10702;DHT22;5402;50.004;8.246;2023-02-26T13:03:43;4.10;99.90
10702;DHT22;5402;50.004;8.246;2023-02-26T13:09:24;4.00;99.90
10702;DHT22;5402;50.004;8.246;2023-02-26T13:12:06;4.10;99.90
10702;DHT22;5402;50.004;8.246;2023-02-26T13:14:44;4.10;99.90
10702;DHT22;5402;50.004;8.246;2023-02-26T13:17:20;4.10;99.90
10702;DHT22;5402;50.004;8.246;2023-02-26T13:19:54;4.00;99.90
10702;DHT22;5402;50.004;8.246;2023-02-26T13:22:26;4.00;99.90
10702;DHT22;5402;50.004;8.246;2023-02-26T13:24:58;4.10;99.90
10702;DHT22;5402;50.004;8.246;2023-02-26T13:27:27;4.20;99.90
10702;DHT22;5402;50.004;8.246;2023-02-26T13:30:12;4.30;99.90
10702;DHT22;5402;50.004;8.246;2023-02-26T13:32:40;4.30;99.90
10702;DHT22;5402;50.004;8.246;2023-02-26T13:35:17;4.40;99.90
10702;DHT22;5402;50.004;8.246;2023-02-26T13:37:49;4.40;99.90
10702;DHT22;5402;50.004;8.246;2023-02-26T13:40:34;4.30;99.90
10702;DHT22;5402;50.004;8.246;2023-02-26T13:43:28;4.30;99.90
10702;DHT22;5402;50.004;8.246;2023-02-26T13:46:07;4.30;99.90
10702;DHT22;5402;50.004;8.246;2023-02-26T13:48:44;4.30;99.90
10702;DHT22;5402;50.004;8.246;2023-02-26T13:51:26;4.20;99.90
10702;DHT22;5402;50.004;8.246;2023-02-26T13:53:58;4.00;99.90
10702;DHT22;5402;50.004;8.246;2023-02-26T13:56:53;3.90;99.90
10702;DHT22;5402;50.004;8.246;2023-02-26T13:59:29;4.00;99.90
10702;DHT22;5402;50.004;8.246;2023-02-26T14:02:00;4.10;99.90
10702;DHT22;5402;50.004;8.246;2023-02-26T14:04:29;4.00;99.90
10702;DHT22;5402;50.004;8.246;2023-02-26T14:06:57;4.00;99.90
10702;DHT22;5402;50.004;8.246;2023-02-26T14:09:43;4.10;99.90
10702;DHT22;5402;50.004;8.246;2023-02-26T14:12:35;4.00;99.90
10702;DHT22;5402;50.004;8.246;2023-02-26T14:15:30;4.10;99.90
10702;DHT22;5402;50.004;8.246;2023-02-26T14:18:04;4.10;99.90
10702;DHT22;5402;50.004;8.246;2023-02-26T14:20:34;4.00;99.90
10702;DHT22;5402;50.004;8.246;2023-02-26T14:23:30;4.00;99.90
10702;DHT22;5402;50.004;8.246;2023-02-26T14:26:05;4.00;99.90
10702;DHT22;5402;50.004;8.246;2023-02-26T14:28:55;3.90;99.90
10702;DHT22;5402;50.004;8.246;2023-02-26T14:31:23;3.90;99.90
10702;DHT22;5402;50.004;8.246;2023-02-26T14:34:12;3.90;99.90
10702;DHT22;5402;50.004;8.246;2023-02-26T14:36:43;3.90;99.90
10702;DHT22;5402;50.004;8.246;2023-02-26T14:39:23;4.00;99.90
10702;DHT22;5402;50.004;8.246;2023-02-26T14:41:56;4.00;99.90
10702;DHT22;5402;50.004;8.246;2023-02-26T14:44:26;4.10;99.90
10702;DHT22;5402;50.004;8.246;2023-02-26T14:46:54;4.10;99.90
10702;DHT22;5402;50.004;8.246;2023-02-26T14:49:24;4.20;99.90
10702;DHT22;5402;50.004;8.246;2023-02-26T14:52:16;4.10;99.90
10702;DHT22;5402;50.004;8.246;2023-02-26T14:55:10;3.90;99.90
10702;DHT22;5402;50.004;8.246;2023-02-26T14:57:52;3.90;99.90
10702;DHT22;5402;50.004;8.246;2023-02-26T15:00:30;3.80;99.90
10702;DHT22;5402;50.004;8.246;2023-02-26T15:03:22;3.90;99.90
10702;DHT22;5402;50.004;8.246;2023-02-26T15:06:08;3.90;99.90
10702;DHT22;5402;50.004;8.246;2023-02-26T15:08:52;3.90;99.90
10702;DHT22;5402;50.004;8.246;2023-02-26T15:11:38;4.00;99.90
10702;DHT22;5402;50.004;8.246;2023-02-26T15:14:36;4.00;99.90
10702;DHT22;5402;50.004;8.246;2023-02-26T15:17:18;4.00;99.90
10702;DHT22;5402;50.004;8.246;2023-02-26T15:20:03;4.00;99.90
10702;DHT22;5402;50.004;8.246;2023-02-26T15:22:41;4.00;99.90
10702;DHT22;5402;50.004;8.246;2023-02-26T15:25:25;4.10;99.90
10702;DHT22;5402;50.004;8.246;2023-02-26T15:27:53;4.10;99.90
10702;DHT22;5402;50.004;8.246;2023-02-26T15:30:22;4.10;99.90
10702;DHT22;5402;50.004;8.246;2023-02-26T15:32:55;4.10;99.90
10702;DHT22;5402;50.004;8.246;2023-02-26T15:35:23;4.10;99.90
10702;DHT22;5402;50.004;8.246;2023-02-26T15:37:52;4.10;99.90
10702;DHT22;5402;50.004;8.246;2023-02-26T15:40:21;4.00;99.90
10702;DHT22;5402;50.004;8.246;2023-02-26T15:42:51;3.90;99.90
10702;DHT22;5402;50.004;8.246;2023-02-26T15:45:24;3.90;99.90
10702;DHT22;5402;50.004;8.246;2023-02-26T15:47:54;3.90;99.90
10702;DHT22;5402;50.004;8.246;2023-02-26T15:50:24;3.90;99.90
10702;DHT22;5402;50.004;8.246;2023-02-26T15:52:56;3.90;99.90
10702;DHT22;5402;50.004;8.246;2023-02-26T15:55:24;3.90;99.90
10702;DHT22;5402;50.004;8.246;2023-02-26T15:57:51;3.80;99.90
10702;DHT22;5402;50.004;8.246;2023-02-26T16:00:21;3.70;99.90
10702;DHT22;5402;50.004;8.246;2023-02-26T16:02:55;3.60;99.90
10702;DHT22;5402;50.004;8.246;2023-02-26T16:05:24;3.50;99.90
10702;DHT22;5402;50.004;8.246;2023-02-26T16:07:51;3.50;99.90
10702;DHT22;5402;50.004;8.246;2023-02-26T16:10:31;3.50;99.90
10702;DHT22;5402;50.004;8.246;2023-02-26T16:12:58;3.50;99.90
10702;DHT22;5402;50.004;8.246;2023-02-26T16:15:30;3.40;99.90
10702;DHT22;5402;50.004;8.246;2023-02-26T16:17:59;3.30;99.90
10702;DHT22;5402;50.004;8.246;2023-02-26T16:20:28;3.30;99.90
10702;DHT22;5402;50.004;8.246;2023-02-26T16:23:01;3.20;99.90
10702;DHT22;5402;50.004;8.246;2023-02-26T16:25:32;3.10;99.90
10702;DHT22;5402;50.004;8.246;2023-02-26T16:28:02;3.10;99.90
10702;DHT22;5402;50.004;8.246;2023-02-26T16:30:32;3.10;99.90
10702;DHT22;5402;50.004;8.246;2023-02-26T16:33:02;3.10;99.90
10702;DHT22;5402;50.004;8.246;2023-02-26T16:35:36;2.90;99.90
10702;DHT22;5402;50.004;8.246;2023-02-26T16:38:11;3.20;99.90
10702;DHT22;5402;50.004;8.246;2023-02-26T16:40:40;3.00;99.90
10702;DHT22;5402;50.004;8.246;2023-02-26T16:46:14;2.80;99.90
10702;DHT22;5402;50.004;8.246;2023-02-26T16:48:47;2.90;99.90